Time;durP1;ratioP1;P1;durP2;ratioP2;P2;SDS_P1;SDS_P2;PMS_P1;PMS_P2;Temp;Humidity;BMP_temperature;BMP_pressure;BME280_temperature;BME280_humidity;BME280_pressure;Samples;Min_cycle;Max_cycle;Signal;HPM_P1;HPM_P2
2021/09/04 00:02:18;;;;;;;10.18;5.68;;;;;;;;;;5054668;28;20041;-76
2021/09/04 00:04:44;;;;;;;11.88;6.38;;;;;;;;;;5037502;28;20033;-76
2021/09/04 00:07:10;;;;;;;22.67;6.95;;;;;;;;;;5055284;28;20040;-76
2021/09/04 00:09:36;;;;;;;11.80;6.55;;;;;;;;;;5037439;28;20040;-76
2021/09/04 00:12:02;;;;;;;19.95;8.32;;;;;;;;;;5029932;28;20491;-77
2021/09/04 00:14:31;;;;;;;17.95;8.45;;;;;;;;;;5033931;28;20026;-76
2021/09/04 00:16:57;;;;;;;39.58;9.68;;;;;;;;;;5017586;28;20036;-76
2021/09/04 00:19:23;;;;;;;24.95;10.48;;;;;;;;;;5033598;28;20038;-76
2021/09/04 00:21:49;;;;;;;19.35;8.60;;;;;;;;;;5017421;28;20041;-76
2021/09/04 00:24:15;;;;;;;15.50;7.15;;;;;;;;;;5033792;28;20098;-76
2021/09/04 00:26:40;;;;;;;12.98;6.53;;;;;;;;;;5033769;28;20106;-76
2021/09/04 00:29:07;;;;;;;13.23;6.10;;;;;;;;;;5034318;28;20041;-76
2021/09/04 00:31:32;;;;;;;18.45;6.88;;;;;;;;;;5033844;28;20034;-76
2021/09/04 00:33:58;;;;;;;12.70;6.70;;;;;;;;;;5033312;28;20129;-77
2021/09/04 00:36:23;;;;;;;17.15;7.97;;;;;;;;;;5017385;28;20132;-76
2021/09/04 00:38:49;;;;;;;15.30;7.28;;;;;;;;;;5035075;28;20057;-76
2021/09/04 00:41:19;;;;;;;16.60;8.13;;;;;;;;;;5034490;28;20057;-76
2021/09/04 00:43:45;;;;;;;13.73;7.45;;;;;;;;;;5053272;28;20037;-76
2021/09/04 00:46:11;;;;;;;19.02;9.05;;;;;;;;;;5053490;28;20039;-76
2021/09/04 00:48:37;;;;;;;18.73;9.07;;;;;;;;;;5053001;28;20039;-76
2021/09/04 00:51:03;;;;;;;16.38;10.00;;;;;;;;;;5036569;28;20021;-75
2021/09/04 00:53:29;;;;;;;22.15;9.88;;;;;;;;;;5054611;28;20490;-76
2021/09/04 00:55:54;;;;;;;18.55;11.23;;;;;;;;;;5054403;28;20032;-76
2021/09/04 00:58:20;;;;;;;18.67;10.45;;;;;;;;;;5036312;28;20087;-76
2021/09/04 01:00:52;;;;;;;21.20;10.68;;;;;;;;;;5036139;28;20036;-76
2021/09/04 01:03:18;;;;;;;22.58;10.52;;;;;;;;;;5036487;28;20043;-76
2021/09/04 01:05:46;;;;;;;24.30;11.63;;;;;;;;;;5052835;28;20037;-75
2021/09/04 01:08:12;;;;;;;16.58;9.95;;;;;;;;;;5036282;28;20037;-76
2021/09/04 01:10:38;;;;;;;18.92;11.00;;;;;;;;;;5056302;28;20028;-76
2021/09/04 01:13:03;;;;;;;24.20;11.70;;;;;;;;;;5056213;28;20033;-76
2021/09/04 01:15:29;;;;;;;24.52;11.68;;;;;;;;;;5074216;28;20064;-76
2021/09/04 01:17:54;;;;;;;16.42;10.20;;;;;;;;;;5072642;28;20033;-76
2021/09/04 01:20:20;;;;;;;14.43;9.70;;;;;;;;;;5073060;28;20115;-76
2021/09/04 01:22:45;;;;;;;14.32;9.10;;;;;;;;;;5056129;28;20036;-76
2021/09/04 01:25:23;;;;;;;20.27;10.18;;;;;;;;;;5056190;28;20040;-76
2021/09/04 01:27:49;;;;;;;17.27;10.27;;;;;;;;;;5056237;28;20059;-76
2021/09/04 01:30:15;;;;;;;16.02;10.35;;;;;;;;;;5072555;28;20103;-76
2021/09/04 01:32:40;;;;;;;15.57;10.80;;;;;;;;;;5055695;28;20504;-76
2021/09/04 01:35:11;;;;;;;15.93;10.85;;;;;;;;;;5072643;28;20100;-76
2021/09/04 01:37:37;;;;;;;17.40;11.73;;;;;;;;;;5072523;28;20032;-76
2021/09/04 01:40:08;;;;;;;16.40;10.52;;;;;;;;;;5065051;28;20086;-76
2021/09/04 01:42:33;;;;;;;17.63;11.43;;;;;;;;;;5053671;28;20151;-76
2021/09/04 01:44:58;;;;;;;21.67;11.35;;;;;;;;;;5052696;28;20062;-75
2021/09/04 01:47:26;;;;;;;76.45;12.27;;;;;;;;;;5052544;28;20032;-76
2021/09/04 01:49:53;;;;;;;19.27;11.70;;;;;;;;;;5052419;28;20095;-76
2021/09/04 01:52:18;;;;;;;47.72;11.43;;;;;;;;;;5051835;28;20513;-76
2021/09/04 01:54:44;;;;;;;69.88;11.20;;;;;;;;;;5053293;28;20033;-75
2021/09/04 01:57:10;;;;;;;19.08;9.05;;;;;;;;;;5051511;28;20040;-76
2021/09/04 01:59:37;;;;;;;20.92;11.80;;;;;;;;;;5035109;28;20032;-76
2021/09/04 02:02:03;;;;;;;100.22;11.02;;;;;;;;;;5051206;28;20537;-76
2021/09/04 02:04:31;;;;;;;47.00;10.25;;;;;;;;;;5053849;28;20402;-76
2021/09/04 02:06:56;;;;;;;30.05;10.27;;;;;;;;;;5052236;28;20045;-76
2021/09/04 02:09:22;;;;;;;14.00;10.32;;;;;;;;;;5068768;28;20036;-76
2021/09/04 02:11:47;;;;;;;28.38;8.85;;;;;;;;;;5055537;28;20036;-76
2021/09/04 02:14:12;;;;;;;159.75;11.40;;;;;;;;;;5073621;28;20123;-76
2021/09/04 02:16:38;;;;;;;73.57;11.15;;;;;;;;;;5071993;28;20060;-76
2021/09/04 02:19:04;;;;;;;19.05;10.77;;;;;;;;;;5055185;28;20123;-76
2021/09/04 02:21:30;;;;;;;20.55;9.80;;;;;;;;;;5072216;28;20028;-76
2021/09/04 02:23:56;;;;;;;82.75;11.82;;;;;;;;;;5055256;28;20485;-76
2021/09/04 02:26:23;;;;;;;13.68;9.85;;;;;;;;;;5072190;28;20082;-76
2021/09/04 02:28:49;;;;;;;13.20;10.32;;;;;;;;;;5055226;28;20044;-76
2021/09/04 02:31:16;;;;;;;20.58;10.63;;;;;;;;;;5071778;28;20035;-76
2021/09/04 02:33:41;;;;;;;15.43;9.85;;;;;;;;;;5055325;28;20484;-76
2021/09/04 02:36:08;;;;;;;15.70;10.20;;;;;;;;;;5071667;28;20455;-76
2021/09/04 02:38:34;;;;;;;21.25;9.85;;;;;;;;;;5062821;28;20035;-75
2021/09/04 02:41:01;;;;;;;13.18;9.68;;;;;;;;;;5032247;28;20040;-76
2021/09/04 02:43:27;;;;;;;18.17;10.52;;;;;;;;;;5015991;28;20075;-76
2021/09/04 02:45:53;;;;;;;18.33;9.63;;;;;;;;;;5032116;28;20033;-76
2021/09/04 02:48:19;;;;;;;15.00;10.82;;;;;;;;;;5032089;28;20086;-76
2021/09/04 02:50:44;;;;;;;15.55;10.70;;;;;;;;;;5032286;28;20475;-77
2021/09/04 02:53:12;;;;;;;12.30;9.48;;;;;;;;;;5032931;28;20395;-77
2021/09/04 02:55:37;;;;;;;29.70;9.88;;;;;;;;;;5031642;28;20029;-76
2021/09/04 02:58:03;;;;;;;11.77;9.55;;;;;;;;;;5032875;28;20033;-77
2021/09/04 03:00:29;;;;;;;12.90;9.65;;;;;;;;;;5031937;28;20807;-76
2021/09/04 03:02:55;;;;;;;14.82;9.50;;;;;;;;;;5048322;28;20041;-76
2021/09/04 03:05:23;;;;;;;12.65;9.32;;;;;;;;;;5032710;28;20029;-76
2021/09/04 03:07:49;;;;;;;26.20;9.70;;;;;;;;;;5015629;28;20064;-77
2021/09/04 03:10:16;;;;;;;36.38;8.77;;;;;;;;;;5032028;28;20040;-76
2021/09/04 03:12:42;;;;;;;18.38;10.05;;;;;;;;;;5033430;28;20040;-76
2021/09/04 03:15:10;;;;;;;23.05;9.82;;;;;;;;;;5039016;28;20052;-77
2021/09/04 03:17:35;;;;;;;19.95;10.13;;;;;;;;;;5039440;28;20033;-77
2021/09/04 03:20:04;;;;;;;14.40;9.30;;;;;;;;;;5056887;28;20050;-77
2021/09/04 03:22:30;;;;;;;14.23;9.50;;;;;;;;;;5039068;28;20495;-77
2021/09/04 03:24:56;;;;;;;12.90;10.00;;;;;;;;;;5056289;28;20040;-76
2021/09/04 03:27:22;;;;;;;13.77;9.73;;;;;;;;;;5038750;28;20029;-77
2021/09/04 03:29:48;;;;;;;11.75;8.85;;;;;;;;;;5038300;28;20051;-76
2021/09/04 03:32:14;;;;;;;10.23;8.02;;;;;;;;;;5055213;28;20077;-77
2021/09/04 03:34:39;;;;;;;17.98;8.00;;;;;;;;;;5054833;28;20033;-75
2021/09/04 03:37:06;;;;;;;13.95;7.85;;;;;;;;;;5038400;28;20116;-76
2021/09/04 03:39:32;;;;;;;9.60;7.28;;;;;;;;;;5054891;28;20512;-76
2021/09/04 03:41:58;;;;;;;10.68;7.97;;;;;;;;;;5061078;28;20477;-76
2021/09/04 03:44:24;;;;;;;9.48;7.57;;;;;;;;;;5074500;28;20028;-75
2021/09/04 03:46:49;;;;;;;10.13;8.25;;;;;;;;;;5074925;28;20139;-76
2021/09/04 03:49:15;;;;;;;14.30;8.73;;;;;;;;;;5075666;28;20041;-76
2021/09/04 03:51:42;;;;;;;15.20;10.10;;;;;;;;;;5076061;28;20078;-76
2021/09/04 03:54:08;;;;;;;12.93;9.27;;;;;;;;;;5058099;28;20075;-76
2021/09/04 03:56:35;;;;;;;11.75;8.93;;;;;;;;;;5074615;28;20029;-77
2021/09/04 03:59:01;;;;;;;10.45;8.15;;;;;;;;;;5074412;28;20102;-77
2021/09/04 04:01:27;;;;;;;10.98;8.20;;;;;;;;;;5075967;28;20133;-77
2021/09/04 04:03:53;;;;;;;10.13;7.65;;;;;;;;;;5075434;28;20101;-77
2021/09/04 04:06:19;;;;;;;9.98;8.10;;;;;;;;;;5057539;28;20123;-77
2021/09/04 04:08:44;;;;;;;10.13;7.75;;;;;;;;;;5074543;28;20516;-77
2021/09/04 04:11:12;;;;;;;13.98;8.57;;;;;;;;;;5073925;28;20031;-77
2021/09/04 04:13:39;;;;;;;15.02;8.65;;;;;;;;;;5075670;28;20382;-77
2021/09/04 04:16:07;;;;;;;11.73;8.75;;;;;;;;;;5075653;28;20457;-77
2021/09/04 04:18:36;;;;;;;14.13;8.52;;;;;;;;;;5074231;28;20032;-77
2021/09/04 04:21:03;;;;;;;11.15;8.38;;;;;;;;;;5074452;28;20486;-77
2021/09/04 04:23:29;;;;;;;13.25;8.40;;;;;;;;;;5057004;28;20047;-76
2021/09/04 04:25:55;;;;;;;11.55;8.55;;;;;;;;;;5056887;28;20032;-76
2021/09/04 04:28:21;;;;;;;11.82;8.18;;;;;;;;;;5074308;28;20062;-77
2021/09/04 04:30:47;;;;;;;11.52;9.05;;;;;;;;;;5074042;28;20466;-77
2021/09/04 04:33:15;;;;;;;11.68;8.52;;;;;;;;;;5073836;28;20076;-77
2021/09/04 04:35:40;;;;;;;11.48;8.00;;;;;;;;;;5073798;28;20500;-77
2021/09/04 04:38:06;;;;;;;9.85;7.68;;;;;;;;;;5057052;28;20029;-77
2021/09/04 04:40:32;;;;;;;13.02;8.27;;;;;;;;;;5034373;28;20153;-76
2021/09/04 04:43:00;;;;;;;11.95;8.25;;;;;;;;;;5035095;28;20038;-77
2021/09/04 04:45:26;;;;;;;10.27;8.00;;;;;;;;;;5017401;28;20040;-76
2021/09/04 04:47:52;;;;;;;10.57;7.53;;;;;;;;;;5017180;28;20029;-77
2021/09/04 04:50:19;;;;;;;14.40;7.75;;;;;;;;;;5033610;28;20021;-76
2021/09/04 04:52:45;;;;;;;14.43;7.90;;;;;;;;;;5016764;28;20128;-76
2021/09/04 04:55:10;;;;;;;13.98;8.40;;;;;;;;;;5033717;28;20480;-76
2021/09/04 04:57:37;;;;;;;9.43;7.45;;;;;;;;;;5034725;28;20037;-76
2021/09/04 05:00:04;;;;;;;10.02;7.25;;;;;;;;;;5033069;28;20064;-77
2021/09/04 05:02:30;;;;;;;13.20;8.43;;;;;;;;;;5034618;28;20479;-76
2021/09/04 05:04:56;;;;;;;13.70;7.63;;;;;;;;;;5033388;28;20048;-77
2021/09/04 05:07:21;;;;;;;13.05;7.15;;;;;;;;;;5033543;28;20037;-76
2021/09/04 05:09:47;;;;;;;12.00;7.45;;;;;;;;;;5034362;28;20026;-76
2021/09/04 05:12:13;;;;;;;12.27;7.70;;;;;;;;;;5033348;28;20034;-76
2021/09/04 05:14:39;;;;;;;12.93;8.27;;;;;;;;;;5032870;28;20034;-76
2021/09/04 05:17:06;;;;;;;13.77;8.25;;;;;;;;;;5016775;28;20037;-76
2021/09/04 05:19:33;;;;;;;14.80;7.97;;;;;;;;;;5033843;28;20025;-76
2021/09/04 05:21:59;;;;;;;12.98;7.80;;;;;;;;;;5032901;28;20506;-76
2021/09/04 05:24:25;;;;;;;15.38;8.82;;;;;;;;;;5016763;28;20041;-76
2021/09/04 05:26:51;;;;;;;14.68;9.25;;;;;;;;;;5016912;28;20471;-76
2021/09/04 05:29:16;;;;;;;14.60;8.98;;;;;;;;;;5033027;28;20124;-77
2021/09/04 05:31:42;;;;;;;18.65;10.30;;;;;;;;;;5032911;28;20029;-76
2021/09/04 05:34:07;;;;;;;16.10;9.35;;;;;;;;;;5049704;28;20033;-76
2021/09/04 05:36:34;;;;;;;21.58;9.52;;;;;;;;;;5032898;28;20041;-77
2021/09/04 05:38:59;;;;;;;21.55;10.23;;;;;;;;;;5039059;28;20028;-77
2021/09/04 05:41:25;;;;;;;20.20;10.05;;;;;;;;;;5074290;28;20033;-77
2021/09/04 05:43:51;;;;;;;24.55;10.80;;;;;;;;;;5072698;28;20126;-77
2021/09/04 05:46:17;;;;;;;24.55;12.35;;;;;;;;;;5072608;28;20029;-77
2021/09/04 05:48:42;;;;;;;22.45;11.10;;;;;;;;;;5055545;28;20509;-76
2021/09/04 05:51:08;;;;;;;18.95;10.75;;;;;;;;;;5072818;28;20032;-77
2021/09/04 05:53:33;;;;;;;23.45;11.55;;;;;;;;;;5054518;28;20036;-76
2021/09/04 05:55:59;;;;;;;24.25;11.10;;;;;;;;;;5074037;28;20107;-76
2021/09/04 05:58:25;;;;;;;26.13;12.15;;;;;;;;;;5072082;28;20033;-76
2021/09/04 06:00:52;;;;;;;18.65;11.38;;;;;;;;;;5054409;28;20039;-76
2021/09/04 06:03:18;;;;;;;22.42;11.80;;;;;;;;;;5055562;28;20094;-76
2021/09/04 06:05:43;;;;;;;23.67;12.20;;;;;;;;;;5055702;28;20037;-76
2021/09/04 06:08:09;;;;;;;22.65;11.23;;;;;;;;;;5069376;28;20040;-76
2021/09/04 06:10:34;;;;;;;24.73;11.95;;;;;;;;;;5051837;28;20032;-76
2021/09/04 06:13:00;;;;;;;22.45;12.10;;;;;;;;;;5034768;28;20036;-77
2021/09/04 06:15:25;;;;;;;20.13;12.40;;;;;;;;;;5051914;28;20033;-76
2021/09/04 06:17:51;;;;;;;30.58;13.93;;;;;;;;;;5052055;28;20144;-76
2021/09/04 06:20:17;;;;;;;23.92;12.05;;;;;;;;;;5052000;28;20037;-76
2021/09/04 06:22:42;;;;;;;27.85;13.07;;;;;;;;;;5053524;28;20041;-76
2021/09/04 06:25:08;;;;;;;21.92;13.52;;;;;;;;;;5052034;28;20029;-76
2021/09/04 06:27:34;;;;;;;34.45;16.70;;;;;;;;;;5053375;28;20040;-78
2021/09/04 06:29:59;;;;;;;29.63;16.23;;;;;;;;;;5037026;28;20467;-78
2021/09/04 06:32:26;;;;;;;32.83;15.75;;;;;;;;;;5053603;28;20091;-76
2021/09/04 06:34:53;;;;;;;30.15;15.35;;;;;;;;;;5053246;28;20094;-77
2021/09/04 06:37:19;;;;;;;33.05;15.82;;;;;;;;;;5053824;28;20449;-76
2021/09/04 06:39:46;;;;;;;27.83;15.23;;;;;;;;;;5054003;28;20445;-78
2021/09/04 06:42:12;;;;;;;30.90;16.55;;;;;;;;;;5053969;28;20043;-78
2021/09/04 06:44:37;;;;;;;26.88;15.27;;;;;;;;;;5050526;28;20037;-76
2021/09/04 06:47:03;;;;;;;24.70;13.65;;;;;;;;;;5050434;28;20045;-77
2021/09/04 06:49:28;;;;;;;27.23;15.23;;;;;;;;;;5027634;28;20036;-77
2021/09/04 06:51:54;;;;;;;21.42;13.80;;;;;;;;;;5047224;28;20033;-77
2021/09/04 06:54:24;;;;;;;20.73;13.13;;;;;;;;;;5021290;28;20036;-77
2021/09/04 06:56:50;;;;;;;21.52;12.50;;;;;;;;;;5021534;28;20029;-77
2021/09/04 06:59:15;;;;;;;21.10;12.43;;;;;;;;;;5022898;28;20037;-80
2021/09/04 07:01:42;;;;;;;25.02;13.82;;;;;;;;;;5020891;28;20033;-77
2021/09/04 07:04:07;;;;;;;21.60;11.80;;;;;;;;;;5020498;28;20495;-78
2021/09/04 07:06:33;;;;;;;20.42;11.35;;;;;;;;;;5022317;28;20084;-76
2021/09/04 07:08:58;;;;;;;19.45;10.88;;;;;;;;;;5026602;28;20068;-81
2021/09/04 07:11:24;;;;;;;22.95;12.77;;;;;;;;;;5060616;28;20032;-81
2021/09/04 07:13:49;;;;;;;24.35;11.60;;;;;;;;;;5048935;28;20044;-80
2021/09/04 07:16:15;;;;;;;23.13;11.35;;;;;;;;;;5062059;28;20068;-78
2021/09/04 07:18:40;;;;;;;20.45;10.43;;;;;;;;;;5049643;28;20555;-82
2021/09/04 07:21:06;;;;;;;20.77;11.48;;;;;;;;;;5050136;28;20041;-82
2021/09/04 07:23:31;;;;;;;21.30;12.07;;;;;;;;;;5050395;28;20041;-83
2021/09/04 07:25:59;;;;;;;18.58;11.02;;;;;;;;;;5049415;28;20041;-83
2021/09/04 07:28:24;;;;;;;19.55;10.63;;;;;;;;;;5051092;28;20079;-82
2021/09/04 07:30:50;;;;;;;17.23;10.75;;;;;;;;;;5069124;28;20037;-80
2021/09/04 07:33:17;;;;;;;15.05;10.40;;;;;;;;;;5046917;28;20056;-80
2021/09/04 07:35:43;;;;;;;16.67;10.15;;;;;;;;;;5047616;28;20090;-80
2021/09/04 07:38:08;;;;;;;18.67;11.73;;;;;;;;;;5063469;28;20033;-79
2021/09/04 07:40:34;;;;;;;16.15;10.45;;;;;;;;;;5047371;28;20041;-82
2021/09/04 07:42:59;;;;;;;18.80;10.38;;;;;;;;;;5039207;28;20111;-79
2021/09/04 07:45:25;;;;;;;17.73;10.77;;;;;;;;;;5040419;28;20124;-78
2021/09/04 07:47:51;;;;;;;16.52;10.23;;;;;;;;;;5025366;28;20029;-79
2021/09/04 07:50:16;;;;;;;18.83;11.65;;;;;;;;;;5060595;28;20360;-76
2021/09/04 07:52:42;;;;;;;16.77;10.57;;;;;;;;;;5043861;28;20029;-78
2021/09/04 07:55:07;;;;;;;15.65;10.93;;;;;;;;;;5046023;28;20492;-80
2021/09/04 07:57:33;;;;;;;15.27;10.32;;;;;;;;;;5045487;28;20043;-78
2021/09/04 07:59:58;;;;;;;13.57;9.02;;;;;;;;;;5044139;28;20033;-78
2021/09/04 08:02:24;;;;;;;14.98;9.15;;;;;;;;;;5025678;28;20056;-78
2021/09/04 08:04:49;;;;;;;14.07;10.00;;;;;;;;;;5022094;28;20034;-79
2021/09/04 08:07:15;;;;;;;14.60;10.10;;;;;;;;;;5037801;28;20123;-78
2021/09/04 08:09:40;;;;;;;12.77;8.77;;;;;;;;;;5027199;28;20128;-78
2021/09/04 08:12:06;;;;;;;14.65;9.43;;;;;;;;;;5043339;28;20032;-78
2021/09/04 08:14:32;;;;;;;14.65;9.88;;;;;;;;;;5077949;28;20086;-78
2021/09/04 08:16:57;;;;;;;13.50;8.63;;;;;;;;;;5061036;28;20032;-78
2021/09/04 08:19:23;;;;;;;15.63;9.50;;;;;;;;;;5060247;28;20040;-79
2021/09/04 08:21:48;;;;;;;11.90;8.77;;;;;;;;;;5077933;28;20059;-79
2021/09/04 08:24:14;;;;;;;12.13;8.40;;;;;;;;;;5060852;28;20040;-79
2021/09/04 08:26:39;;;;;;;15.07;8.50;;;;;;;;;;5077825;28;20509;-79
2021/09/04 08:29:05;;;;;;;17.25;10.63;;;;;;;;;;5060496;28;20102;-78
2021/09/04 08:31:30;;;;;;;17.23;9.65;;;;;;;;;;5059570;28;20398;-79
2021/09/04 08:33:56;;;;;;;16.15;9.18;;;;;;;;;;5059297;28;20135;-78
2021/09/04 08:36:21;;;;;;;22.65;13.68;;;;;;;;;;5076583;28;20036;-79
2021/09/04 08:38:47;;;;;;;18.23;12.10;;;;;;;;;;5046179;28;20025;-79
2021/09/04 08:41:12;;;;;;;12.52;8.98;;;;;;;;;;5054639;28;20037;-78
2021/09/04 08:43:37;;;;;;;12.38;8.43;;;;;;;;;;5056053;28;20068;-78
2021/09/04 08:46:03;;;;;;;12.30;8.30;;;;;;;;;;5058993;28;20044;-79
2021/09/04 08:48:30;;;;;;;14.13;8.65;;;;;;;;;;5057504;28;20025;-79
2021/09/04 08:50:56;;;;;;;13.90;9.07;;;;;;;;;;5055782;28;20060;-79
2021/09/04 08:53:22;;;;;;;13.77;9.13;;;;;;;;;;5040244;28;20075;-79
2021/09/04 08:55:48;;;;;;;15.55;10.18;;;;;;;;;;5040201;28;20037;-79
2021/09/04 08:58:14;;;;;;;17.85;10.55;;;;;;;;;;5056205;28;20044;-77
2021/09/04 09:00:41;;;;;;;16.02;10.30;;;;;;;;;;5055246;28;20544;-78
2021/09/04 09:03:21;;;;;;;18.25;10.80;;;;;;;;;;5055596;28;20128;-78
2021/09/04 09:05:46;;;;;;;14.25;10.20;;;;;;;;;;5058102;28;20075;-79
2021/09/04 09:08:17;;;;;;;12.68;9.07;;;;;;;;;;5040168;28;20425;-81
2021/09/04 09:10:44;;;;;;;19.00;9.10;;;;;;;;;;5039389;28;20033;-81
2021/09/04 09:13:16;;;;;;;13.50;8.45;;;;;;;;;;5056954;28;20045;-79
2021/09/04 09:15:42;;;;;;;11.90;7.75;;;;;;;;;;5056677;28;20067;-79
2021/09/04 09:18:10;;;;;;;10.05;7.25;;;;;;;;;;5039237;28;20398;-78
2021/09/04 09:20:40;;;;;;;13.10;8.00;;;;;;;;;;5038725;28;20086;-78
2021/09/04 09:23:10;;;;;;;14.07;8.77;;;;;;;;;;5046747;28;20029;-78
2021/09/04 09:25:36;;;;;;;11.55;8.27;;;;;;;;;;5019563;28;20124;-78
2021/09/04 09:28:11;;;;;;;12.25;8.30;;;;;;;;;;5019097;28;20061;-79
2021/09/04 09:30:42;;;;;;;13.00;8.13;;;;;;;;;;5019324;28;20030;-79
2021/09/04 09:33:10;;;;;;;10.98;7.63;;;;;;;;;;5035450;28;20048;-80
2021/09/04 09:35:37;;;;;;;13.43;7.30;;;;;;;;;;5020551;28;20037;-79
2021/09/04 09:38:05;;;;;;;11.32;7.65;;;;;;;;;;5038668;28;20037;-79
2021/09/04 09:40:31;;;;;;;12.77;9.23;;;;;;;;;;5021665;28;20128;-79
2021/09/04 09:42:56;;;;;;;10.38;7.22;;;;;;;;;;5021838;28;20033;-79
2021/09/04 09:45:43;;;;;;;15.75;8.65;;;;;;;;;;5020348;28;20099;-81
2021/09/04 09:48:08;;;;;;;;;;;;;;;;;;5022431;28;20033;-83
2021/09/04 09:50:35;;;;;;;11.43;7.10;;;;;;;;;;5023524;28;19991;-80
2021/09/04 09:53:01;;;;;;;11.00;7.38;;;;;;;;;;5038222;28;20037;-82
2021/09/04 09:55:27;;;;;;;11.30;7.68;;;;;;;;;;5040033;28;20037;-79
2021/09/04 09:57:58;;;;;;;10.93;7.10;;;;;;;;;;5054475;28;20029;-77
2021/09/04 10:00:27;;;;;;;9.57;6.97;;;;;;;;;;5050157;28;20039;-79
2021/09/04 10:02:57;;;;;;;9.68;6.80;;;;;;;;;;5021917;28;20033;-78
2021/09/04 10:05:26;;;;;;;10.07;7.20;;;;;;;;;;5041779;28;20033;-79
2021/09/04 10:07:53;;;;;;;16.50;9.20;;;;;;;;;;5047159;28;20029;-77
2021/09/04 10:10:21;;;;;;;12.48;8.90;;;;;;;;;;5056696;28;20048;-79
2021/09/04 10:12:48;;;;;;;14.70;9.70;;;;;;;;;;5038505;28;20041;-79
2021/09/04 10:15:13;;;;;;;12.75;8.52;;;;;;;;;;5053301;28;20056;-86
2021/09/04 10:17:40;;;;;;;14.38;8.80;;;;;;;;;;5032624;28;20033;-86
2021/09/04 10:20:06;;;;;;;10.50;7.35;;;;;;;;;;5033129;28;20060;-85
2021/09/04 10:22:32;;;;;;;13.05;8.50;;;;;;;;;;5048150;28;20187;-83
2021/09/04 10:25:02;;;;;;;12.77;8.05;;;;;;;;;;5045221;28;20053;-83
2021/09/04 10:27:29;;;;;;;13.48;8.60;;;;;;;;;;5063500;28;20036;-85
2021/09/04 10:29:56;;;;;;;14.27;8.82;;;;;;;;;;5052842;28;20029;-83
2021/09/04 10:32:22;;;;;;;12.40;8.00;;;;;;;;;;5042745;28;20053;-86
2021/09/04 10:35:02;;;;;;;10.85;7.72;;;;;;;;;;5040755;28;20029;-83
2021/09/04 10:37:27;;;;;;;13.18;8.20;;;;;;;;;;5025766;28;20471;-83
2021/09/04 10:40:10;;;;;;;13.10;8.93;;;;;;;;;;5042255;28;20293;-83
2021/09/04 10:42:43;;;;;;;13.65;8.15;;;;;;;;;;5045487;28;20087;-83
2021/09/04 10:45:16;;;;;;;12.30;8.52;;;;;;;;;;5062285;28;20037;-83
2021/09/04 10:47:57;;;;;;;15.70;9.27;;;;;;;;;;5045389;28;20097;-83
2021/09/04 10:50:22;;;;;;;11.07;8.20;;;;;;;;;;5062518;28;20471;-84
2021/09/04 10:53:00;;;;;;;16.67;9.63;;;;;;;;;;5045332;28;20033;-83
2021/09/04 10:55:35;;;;;;;15.50;9.27;;;;;;;;;;5061978;28;20033;-83
2021/09/04 10:58:19;;;;;;;16.73;10.25;;;;;;;;;;5059005;28;20040;-83
2021/09/04 11:00:45;;;;;;;16.30;10.25;;;;;;;;;;5044025;28;20049;-84
2021/09/04 11:03:12;;;;;;;10.23;8.15;;;;;;;;;;5060810;28;20044;-83
2021/09/04 11:05:51;;;;;;;13.07;8.32;;;;;;;;;;5061028;28;20032;-83
2021/09/04 11:08:20;;;;;;;16.27;9.38;;;;;;;;;;5044078;28;20446;-83
2021/09/04 11:10:48;;;;;;;9.80;7.35;;;;;;;;;;5068504;28;20032;-83
2021/09/04 11:13:15;;;;;;;13.15;8.85;;;;;;;;;;5080850;28;20123;-85
2021/09/04 11:15:42;;;;;;;10.65;8.30;;;;;;;;;;5064929;28;20035;-83
2021/09/04 11:18:18;;;;;;;15.20;9.32;;;;;;;;;;5065299;28;20036;-83
2021/09/04 11:20:45;;;;;;;13.52;8.98;;;;;;;;;;5080057;28;20043;-83
2021/09/04 11:23:11;;;;;;;11.95;8.45;;;;;;;;;;5063500;28;20032;-83
2021/09/04 11:25:40;;;;;;;15.73;8.35;;;;;;;;;;5063404;28;20119;-84
2021/09/04 11:28:06;;;;;;;10.55;7.57;;;;;;;;;;5063033;28;20032;-83
2021/09/04 11:30:34;;;;;;;11.73;8.55;;;;;;;;;;5063927;28;20133;-84
2021/09/04 11:33:22;;;;;;;15.35;8.75;;;;;;;;;;5062882;28;20036;-83
2021/09/04 11:35:55;;;;;;;11.38;7.93;;;;;;;;;;5063213;28;20033;-83
2021/09/04 11:38:24;;;;;;;11.55;7.68;;;;;;;;;;5041020;28;20128;-80
2021/09/04 11:40:51;;;;;;;9.70;7.20;;;;;;;;;;5036240;28;20029;-79
2021/09/04 11:43:23;;;;;;;12.63;9.15;;;;;;;;;;5040363;28;20025;-77
2021/09/04 11:46:03;;;;;;;10.27;7.25;;;;;;;;;;5036752;28;20132;-78
2021/09/04 11:48:28;;;;;;;13.85;8.43;;;;;;;;;;5019048;28;20033;-77
2021/09/04 11:51:06;;;;;;;13.02;7.53;;;;;;;;;;5052854;28;20043;-77
2021/09/04 11:53:32;;;;;;;13.60;8.60;;;;;;;;;;5034955;28;20029;-77
2021/09/04 11:55:57;;;;;;;12.55;6.95;;;;;;;;;;5053370;28;20383;-78
2021/09/04 11:58:25;;;;;;;13.10;7.03;;;;;;;;;;5038474;28;20037;-78
2021/09/04 12:00:51;;;;;;;10.20;7.43;;;;;;;;;;5055986;28;20032;-79
2021/09/04 12:03:24;;;;;;;9.90;6.65;;;;;;;;;;5035655;28;20213;-77
2021/09/04 12:05:50;;;;;;;9.02;6.57;;;;;;;;;;5041932;28;20043;-79
2021/09/04 12:08:21;;;;;;;8.68;6.72;;;;;;;;;;5030651;28;20041;-76
2021/09/04 12:10:47;;;;;;;9.90;5.95;;;;;;;;;;5047798;28;20033;-78
2021/09/04 12:13:24;;;;;;;12.02;6.20;;;;;;;;;;5023412;28;20040;-78
2021/09/04 12:15:55;;;;;;;8.80;6.50;;;;;;;;;;5034813;28;20077;-78
2021/09/04 12:18:35;;;;;;;9.15;6.80;;;;;;;;;;5036612;28;20045;-78
2021/09/04 12:21:22;;;;;;;9.40;6.40;;;;;;;;;;5048313;28;20437;-79
2021/09/04 12:23:50;;;;;;;12.38;7.30;;;;;;;;;;5033740;28;20029;-79
2021/09/04 12:26:15;;;;;;;7.95;6.00;;;;;;;;;;5020811;28;20448;-80
2021/09/04 12:28:41;;;;;;;7.63;6.03;;;;;;;;;;5045752;28;20065;-78
2021/09/04 12:31:12;;;;;;;11.70;6.97;;;;;;;;;;5052983;28;20061;-79
2021/09/04 12:33:52;;;;;;;8.35;6.13;;;;;;;;;;5027747;28;20505;-81
2021/09/04 12:36:37;;;;;;;7.60;5.55;;;;;;;;;;5037166;28;20033;-80
2021/09/04 12:39:21;;;;;;;8.75;6.18;;;;;;;;;;5039047;28;20039;-83
2021/09/04 12:41:48;;;;;;;10.30;6.22;;;;;;;;;;5034372;28;20030;-82
2021/09/04 12:44:17;;;;;;;11.32;7.60;;;;;;;;;;5031097;28;20041;-79
2021/09/04 12:46:49;;;;;;;7.43;5.75;;;;;;;;;;5052611;28;20047;-78
2021/09/04 12:49:19;;;;;;;10.02;7.28;;;;;;;;;;5039931;28;20041;-79
2021/09/04 12:51:55;;;;;;;19.63;7.32;;;;;;;;;;5051163;28;20045;-79
2021/09/04 12:54:27;;;;;;;8.07;5.93;;;;;;;;;;5031073;28;20036;-79
2021/09/04 12:57:21;;;;;;;12.75;6.78;;;;;;;;;;5036344;28;20127;-79
2021/09/04 12:59:59;;;;;;;8.85;6.47;;;;;;;;;;5040760;28;20033;-79
2021/09/04 13:02:36;;;;;;;25.05;10.52;;;;;;;;;;5047316;28;20037;-78
2021/09/04 13:05:15;;;;;;;8.50;6.85;;;;;;;;;;5042136;28;20087;-78
2021/09/04 13:07:42;;;;;;;9.45;6.65;;;;;;;;;;5052866;28;20048;-78
2021/09/04 13:10:09;;;;;;;9.57;6.13;;;;;;;;;;5055893;28;20559;-78
2021/09/04 13:12:35;;;;;;;10.40;6.30;;;;;;;;;;5039567;28;20029;-78
2021/09/04 13:15:01;;;;;;;16.77;6.43;;;;;;;;;;5037733;28;20443;-78
2021/09/04 13:17:26;;;;;;;9.13;6.47;;;;;;;;;;5020443;28;20044;-78
2021/09/04 13:19:52;;;;;;;7.25;5.32;;;;;;;;;;5037626;28;20407;-78
2021/09/04 13:22:17;;;;;;;8.60;6.10;;;;;;;;;;5040807;28;20421;-77
2021/09/04 13:24:42;;;;;;;9.18;6.07;;;;;;;;;;5032781;28;20055;-77
2021/09/04 13:27:09;;;;;;;8.65;6.57;;;;;;;;;;5044214;28;20136;-78
2021/09/04 13:29:35;;;;;;;9.75;6.78;;;;;;;;;;5017817;28;20041;-77
2021/09/04 13:32:00;;;;;;;11.00;7.72;;;;;;;;;;5018719;28;20046;-78
2021/09/04 13:34:26;;;;;;;10.32;8.07;;;;;;;;;;5035364;28;20195;-77
2021/09/04 13:36:53;;;;;;;6.75;6.05;;;;;;;;;;5018205;28;20033;-77
2021/09/04 13:39:20;;;;;;;7.82;6.32;;;;;;;;;;5036960;28;20060;-77
2021/09/04 13:41:46;;;;;;;11.05;8.45;;;;;;;;;;5054625;28;20036;-78
2021/09/04 13:44:11;;;;;;;10.05;7.70;;;;;;;;;;5038111;28;20041;-77
2021/09/04 13:46:37;;;;;;;9.07;6.75;;;;;;;;;;5056418;28;20055;-78
2021/09/04 13:49:03;;;;;;;9.50;7.55;;;;;;;;;;5056997;28;20485;-78
2021/09/04 13:51:29;;;;;;;11.50;8.18;;;;;;;;;;5055458;28;20028;-77
2021/09/04 13:53:54;;;;;;;15.35;8.68;;;;;;;;;;5054036;28;20550;-78
2021/09/04 13:56:20;;;;;;;10.65;6.78;;;;;;;;;;5053577;28;20083;-77
2021/09/04 13:58:46;;;;;;;9.27;6.32;;;;;;;;;;5053841;28;20036;-77
2021/09/04 14:01:11;;;;;;;6.95;5.40;;;;;;;;;;5055822;28;20087;-78
2021/09/04 14:03:37;;;;;;;8.40;6.80;;;;;;;;;;5055589;28;20097;-78
2021/09/04 14:06:02;;;;;;;6.30;4.97;;;;;;;;;;5055185;28;20032;-78
2021/09/04 14:08:28;;;;;;;7.10;5.60;;;;;;;;;;5038220;28;20043;-77
2021/09/04 14:10:53;;;;;;;9.82;6.00;;;;;;;;;;5037682;28;20038;-78
2021/09/04 14:13:19;;;;;;;12.10;8.68;;;;;;;;;;5034040;28;20041;-78
2021/09/04 14:15:45;;;;;;;12.13;7.38;;;;;;;;;;5034155;28;20140;-77
2021/09/04 14:18:10;;;;;;;9.38;6.03;;;;;;;;;;5036332;28;20034;-78
2021/09/04 14:20:36;;;;;;;11.35;6.80;;;;;;;;;;5034681;28;20029;-78
2021/09/04 14:23:02;;;;;;;9.15;5.43;;;;;;;;;;5035268;28;20033;-78
2021/09/04 14:25:28;;;;;;;7.60;5.30;;;;;;;;;;5036250;28;20036;-78
2021/09/04 14:27:54;;;;;;;9.57;6.28;;;;;;;;;;5034862;28;20042;-78
2021/09/04 14:30:19;;;;;;;7.93;5.50;;;;;;;;;;5034858;28;20403;-78